Millnerville, Iowa
Current Conditions -  °F | °C
As of 11:35 PM on Sunday 21 Dec 2014 (Local Time) from KLRJ Reporting Station
Haze Haze  
Wind Chill: 32°   Ceiling: 700
Heat Index: 41°   Visibility: 5mi
Dew Point: 41°   Wind: 17mph
Humidity: 100%   Direction: 170°S
Pressure: 29.6"   Gusts: 24mph
Location:  42.7082°N, 96.485°W
Report Text: KLRJ 220535Z AUTO 17015G21KT 5SM BR OVC007 05/05 A2960 RMK AO2
Loading
Personal Weather Stations






























Interactive Weather Map New forecast layout! Learn more

10-Day Weather Forecast

Advertisements
Track Severe Weather on mobile